Карточка аэропорта UWLW

Внимание!
Информация на этой странице в стадии наполнения.
Если вы не увидели какой-то информации, или заметили неточность - пожалуйста сообщите нам!
Спасибо!
Команда RU-STAFF
Название аэропортаВосточный
Название аэропорта (англ.)Vostochny
Превышение252 ft. (76.8 m.)
Координаты54°24', 48°48'
Высота перехода900m
Эшелон переходаQFE>=726mm:FL050; QFE<726:FL060
Коды ответчика6725-6727
Зона ОрВДСамара РПИ (UWWW)
Данные METARUWLW 212000Z 29003MPS CAVOK 19/18 Q1004 R02/CLRD60 NOSIG RMK QFE746/0995
Проноз погоды (TAF)UWLW 211658Z 2118/2218 27003MPS 9999 BKN033 TX22/2212Z TN16/2201Z TEMPO 2118/2124 30003G09MPS 3100 -SHRA BR BKN016CB TEMPO 2200/2204 0200 FG VV002 BECMG 2204/2206 34003G08MPS TEMPO 2206/2218 03008G16MPS 3100 -TSRA BKN016CB
NOTAMshow/hide NOTAM
AWOS   TABLE

Информация о ВПП

ВПП Длина ВПП (м.) Покрытие Курс ВПП Частота ILS
205000Железобетон200110.1
025000Железобетон20110.1

Диспетчерские позиции


Сценарии



Спутниковое изображение